createdAt,value
2018-05-11T00:00:31.459Z,22.60
2018-05-11T00:02:58.513Z,22.13
2018-05-11T00:05:25.667Z,21.17
2018-05-11T00:07:52.707Z,21.03
2018-05-11T00:10:19.755Z,19.00
2018-05-11T00:12:46.809Z,18.50
2018-05-11T00:15:13.961Z,17.80
2018-05-11T00:17:41.003Z,17.00
2018-05-11T00:20:08.052Z,17.13
2018-05-11T00:22:35.106Z,15.50
2018-05-11T00:25:02.150Z,15.40
2018-05-11T00:27:29.157Z,15.17
2018-05-11T00:29:56.143Z,14.93
2018-05-11T00:32:23.294Z,13.77
2018-05-11T00:34:50.344Z,13.63
2018-05-11T00:37:17.498Z,13.90
2018-05-11T00:39:44.548Z,13.47
2018-05-11T00:42:11.597Z,13.53
2018-05-11T00:44:38.912Z,12.97
2018-05-11T00:47:06.002Z,13.87
2018-05-11T00:49:33.047Z,12.60
2018-05-11T00:52:01.495Z,11.83
2018-05-11T00:54:28.580Z,12.90
2018-05-11T00:56:55.633Z,11.13
2018-05-11T00:59:23.774Z,11.37
2018-05-11T01:01:51.772Z,11.13
2018-05-11T01:04:18.831Z,10.23
2018-05-11T01:06:45.868Z,10.83
2018-05-11T01:09:12.916Z,10.30
2018-05-11T01:11:39.970Z,9.63
2018-05-11T01:14:07.122Z,9.67
2018-05-11T01:16:34.164Z,9.40
2018-05-11T01:19:01.216Z,9.97
2018-05-11T01:21:28.267Z,10.47
2018-05-11T01:23:55.310Z,9.73
2018-05-11T01:26:22.360Z,9.77
2018-05-11T01:28:50.434Z,10.33
2018-05-11T01:31:17.489Z,10.20
2018-05-11T01:33:44.529Z,10.43
2018-05-11T01:36:12.709Z,9.77
2018-05-11T01:38:39.752Z,10.33
2018-05-11T01:41:06.804Z,9.80
2018-05-11T01:43:34.362Z,9.60
2018-05-11T01:46:01.373Z,9.40
2018-05-11T01:48:28.463Z,9.50
2018-05-11T01:50:55.713Z,9.63
2018-05-11T01:53:23.585Z,9.70
2018-05-11T01:55:50.628Z,9.33
2018-05-11T01:58:17.683Z,9.83
2018-05-11T02:00:44.726Z,9.60
2018-05-11T02:03:11.775Z,9.67
2018-05-11T02:05:38.830Z,9.50
2018-05-11T02:08:06.691Z,9.57
2018-05-11T02:10:33.746Z,10.03
2018-05-11T02:13:00.788Z,9.47
2018-05-11T02:15:27.840Z,9.17
2018-05-11T02:17:54.890Z,9.67
2018-05-11T02:20:22.042Z,9.67
2018-05-11T02:22:49.091Z,9.57
2018-05-11T02:25:16.133Z,9.80
2018-05-11T02:27:43.187Z,9.63
2018-05-11T02:30:10.231Z,8.87
2018-05-11T02:32:37.279Z,10.40
2018-05-11T02:35:04.332Z,9.33
2018-05-11T02:37:31.376Z,10.47
2018-05-11T02:39:58.425Z,8.97
2018-05-11T02:42:25.480Z,10.10
2018-05-11T02:44:52.522Z,10.43
2018-05-11T02:47:19.570Z,10.20
2018-05-11T02:49:48.771Z,10.13
2018-05-11T02:52:15.817Z,10.47
2018-05-11T02:54:42.866Z,10.80
2018-05-11T02:57:09.814Z,10.43
2018-05-11T02:59:36.862Z,11.13
2018-05-11T03:02:03.916Z,10.70
2018-05-11T03:04:30.958Z,10.97
2018-05-11T03:06:59.541Z,10.30
2018-05-11T03:09:26.740Z,10.70
2018-05-11T03:11:53.640Z,10.07
2018-05-11T03:14:20.689Z,10.27
2018-05-11T03:16:47.891Z,9.77
2018-05-11T03:19:15.298Z,10.67
2018-05-11T03:21:42.355Z,9.40
2018-05-11T03:24:09.348Z,10.87
2018-05-11T03:26:36.346Z,10.90
2018-05-11T03:29:03.390Z,10.63
2018-05-11T03:31:30.439Z,10.07
2018-05-11T03:33:57.589Z,10.27
2018-05-11T03:36:25.151Z,10.00
2018-05-11T03:38:52.204Z,10.60
2018-05-11T03:41:19.252Z,10.40
2018-05-11T03:43:46.301Z,9.70
2018-05-11T03:46:13.350Z,10.57
2018-05-11T03:48:40.398Z,10.43
2018-05-11T03:51:07.447Z,10.83
2018-05-11T03:53:34.593Z,10.70
2018-05-11T03:56:01.641Z,10.53
2018-05-11T03:58:28.700Z,11.07
2018-05-11T04:00:55.737Z,10.60
2018-05-11T04:03:28.931Z,10.67
2018-05-11T04:06:01.919Z,10.87
2018-05-11T04:08:35.930Z,11.40
2018-05-11T04:11:02.979Z,11.67
2018-05-11T04:13:30.033Z,11.37
2018-05-11T04:15:57.076Z,11.87
2018-05-11T04:18:24.126Z,10.90
2018-05-11T04:20:51.584Z,11.70
2018-05-11T04:23:18.637Z,12.57
2018-05-11T04:25:45.681Z,11.70
2018-05-11T04:28:12.729Z,11.63
2018-05-11T04:30:39.782Z,11.47
2018-05-11T04:33:06.826Z,11.90
2018-05-11T04:35:33.875Z,11.67
2018-05-11T04:38:01.131Z,11.83
2018-05-11T04:40:28.178Z,12.57
2018-05-11T04:45:52.994Z,12.43
2018-05-11T04:48:20.395Z,12.80
2018-05-11T04:50:47.405Z,12.23
2018-05-11T04:53:14.447Z,13.27
2018-05-11T04:55:41.496Z,11.70
2018-05-11T04:58:08.550Z,11.77
2018-05-11T05:00:35.639Z,12.77
2018-05-11T05:03:03.774Z,12.60
2018-05-11T05:05:31.637Z,12.13
2018-05-11T05:07:58.631Z,13.13
2018-05-11T05:10:25.632Z,12.30
2018-05-11T05:12:53.396Z,12.90
2018-05-11T05:15:21.215Z,13.73
2018-05-11T05:17:48.831Z,13.40
2018-05-11T05:20:16.694Z,13.60
2018-05-11T05:22:43.745Z,12.97
2018-05-11T05:25:10.791Z,12.50
2018-05-11T05:27:37.940Z,11.63
2018-05-11T05:30:04.989Z,10.87
2018-05-11T05:32:32.042Z,10.67
2018-05-11T05:34:59.242Z,9.80
2018-05-11T05:37:26.852Z,9.33
2018-05-11T05:39:53.899Z,9.30
2018-05-11T05:42:20.953Z,8.30
2018-05-11T05:44:48.005Z,7.53
2018-05-11T05:47:15.052Z,7.67
2018-05-11T05:49:42.100Z,7.03
2018-05-11T05:52:09.218Z,6.20
2018-05-11T05:54:36.149Z,5.30
2018-05-11T05:57:03.139Z,4.90
2018-05-11T05:59:30.089Z,4.80
2018-05-11T06:01:57.131Z,4.40
2018-05-11T06:04:24.180Z,4.73
2018-05-11T06:06:53.743Z,4.90
2018-05-11T06:09:20.737Z,4.47
2018-05-11T06:11:47.785Z,5.60
2018-05-11T06:14:15.972Z,5.10
2018-05-11T06:16:43.008Z,5.13
2018-05-11T06:19:09.955Z,5.57
2018-05-11T06:21:37.007Z,4.97
2018-05-11T06:24:04.056Z,5.43
2018-05-11T06:26:30.997Z,5.17
2018-05-11T06:28:58.056Z,5.47
2018-05-11T06:31:25.710Z,4.40
2018-05-11T06:33:52.761Z,5.10
2018-05-11T06:36:19.812Z,5.57
2018-05-11T06:38:46.856Z,5.37
2018-05-11T06:41:13.905Z,5.03
2018-05-11T06:43:41.368Z,4.60
2018-05-11T06:46:08.431Z,5.20
2018-05-11T06:48:35.460Z,5.23
2018-05-11T06:51:03.948Z,4.90
2018-05-11T06:53:31.100Z,4.60
2018-05-11T06:55:58.050Z,4.60
2018-05-11T06:58:26.212Z,4.10
2018-05-11T07:00:54.285Z,3.80
2018-05-11T07:03:21.236Z,4.50
2018-05-11T07:05:48.281Z,3.40
2018-05-11T07:08:15.846Z,3.40
2018-05-11T07:10:42.889Z,3.00
2018-05-11T07:13:09.938Z,3.03
2018-05-11T07:15:36.990Z,3.67
2018-05-11T07:18:04.033Z,2.60
2018-05-11T07:20:31.183Z,3.10
2018-05-11T07:22:58.542Z,3.17
2018-05-11T07:25:25.594Z,3.10
2018-05-11T07:27:52.638Z,3.97
2018-05-11T07:30:19.686Z,3.70
2018-05-11T07:32:46.741Z,3.60
2018-05-11T07:35:13.783Z,4.23
2018-05-11T07:37:40.833Z,4.93
2018-05-11T07:40:08.289Z,4.27
2018-05-11T07:42:35.655Z,3.80
2018-05-11T07:45:02.695Z,3.80
2018-05-11T07:47:29.702Z,3.43
2018-05-11T07:49:56.690Z,3.43
2018-05-11T07:52:23.738Z,3.50
2018-05-11T07:54:50.792Z,3.45
2018-05-11T07:57:17.835Z,3.30
2018-05-11T07:59:44.883Z,3.28
2018-05-11T08:02:11.938Z,3.92
2018-05-11T08:04:38.992Z,3.83
2018-05-11T08:07:06.030Z,4.00
2018-05-11T08:09:33.085Z,3.83
2018-05-11T08:12:00.080Z,3.40
2018-05-11T08:14:27.247Z,3.22
2018-05-11T08:16:54.230Z,2.97
2018-05-11T08:19:21.274Z,3.20
2018-05-11T08:21:50.032Z,3.65
2018-05-11T08:24:17.010Z,4.10
2018-05-11T08:26:44.143Z,3.70
2018-05-11T08:29:11.107Z,3.00
2018-05-11T08:31:38.154Z,2.92
2018-05-11T08:34:05.209Z,2.90
2018-05-11T08:36:32.253Z,3.10
2018-05-11T08:39:00.326Z,3.03
2018-05-11T08:41:27.373Z,3.35
2018-05-11T08:43:55.549Z,3.10
2018-05-11T08:46:22.506Z,2.87
2018-05-11T08:48:49.560Z,3.20
2018-05-11T08:51:16.500Z,2.83
2018-05-11T08:53:43.539Z,3.50
2018-05-11T08:56:10.587Z,3.15
2018-05-11T08:58:37.643Z,3.10
2018-05-11T09:01:04.686Z,3.00
2018-05-11T09:03:31.733Z,3.67
2018-05-11T09:05:59.401Z,3.70
2018-05-11T09:08:26.445Z,3.03
2018-05-11T09:10:53.493Z,3.00
2018-05-11T09:13:20.547Z,3.42
2018-05-11T09:15:47.591Z,3.28
2018-05-11T09:18:14.542Z,3.47
2018-05-11T09:20:41.891Z,3.30
2018-05-11T09:23:08.941Z,3.58
2018-05-11T09:25:35.999Z,3.25
2018-05-11T09:28:03.044Z,3.60
2018-05-11T09:30:31.119Z,3.55
2018-05-11T09:32:58.166Z,3.60
2018-05-11T09:35:25.216Z,3.30
2018-05-11T09:37:52.260Z,3.30
2018-05-11T09:40:19.310Z,3.00
2018-05-11T09:42:46.362Z,2.80
2018-05-11T09:45:13.512Z,3.00
2018-05-11T09:47:40.666Z,3.17
2018-05-11T09:50:07.813Z,3.37
2018-05-11T09:52:34.861Z,3.62
2018-05-11T09:55:02.051Z,3.50
2018-05-11T09:57:29.464Z,3.65
2018-05-11T09:59:56.513Z,3.40
2018-05-11T10:02:23.874Z,3.55
2018-05-11T10:04:50.920Z,3.45
2018-05-11T10:07:17.967Z,3.58
2018-05-11T10:09:45.022Z,3.30
2018-05-11T10:12:12.063Z,3.40
2018-05-11T10:14:46.080Z,3.75
2018-05-11T10:17:13.125Z,3.85
2018-05-11T10:19:40.174Z,3.87
2018-05-11T10:22:07.481Z,3.72
2018-05-11T10:24:34.781Z,4.15
2018-05-11T10:27:01.834Z,3.55
2018-05-11T10:29:29.294Z,3.80
2018-05-11T10:31:56.449Z,4.10
2018-05-11T10:34:23.493Z,4.00
2018-05-11T10:36:51.053Z,4.35
2018-05-11T10:39:18.610Z,3.35
2018-05-11T10:41:45.759Z,3.53
2018-05-11T10:44:13.735Z,4.12
2018-05-11T10:46:40.931Z,4.22
2018-05-11T10:49:07.930Z,4.85
2018-05-11T10:51:35.803Z,4.40
2018-05-11T10:54:02.847Z,3.90
2018-05-11T10:56:29.843Z,3.37
2018-05-11T10:58:57.455Z,3.60
2018-05-11T11:01:24.503Z,3.53
2018-05-11T11:03:51.557Z,3.60
2018-05-11T11:06:19.727Z,3.65
2018-05-11T11:08:47.090Z,4.22
2018-05-11T11:11:14.135Z,3.75
2018-05-11T11:13:41.220Z,4.15
2018-05-11T11:16:08.235Z,4.20
2018-05-11T11:18:35.278Z,3.20
2018-05-11T11:21:02.333Z,3.40
2018-05-11T11:23:29.379Z,2.90
2018-05-11T11:25:56.446Z,3.17
2018-05-11T11:28:23.682Z,3.20
2018-05-11T11:30:50.726Z,3.05
2018-05-11T11:33:17.775Z,3.20
2018-05-11T11:35:44.829Z,3.37
2018-05-11T11:38:11.914Z,2.95
2018-05-11T11:40:39.021Z,3.40
2018-05-11T11:43:06.991Z,2.85
2018-05-11T11:45:34.352Z,2.70
2018-05-11T11:48:01.398Z,2.72
2018-05-11T11:50:28.449Z,2.80
2018-05-11T11:52:55.595Z,2.92
2018-05-11T11:55:22.549Z,2.87
2018-05-11T11:57:50.310Z,3.00
2018-05-11T12:00:18.276Z,3.40
2018-05-11T12:02:45.332Z,3.35
2018-05-11T12:05:12.483Z,3.22
2018-05-11T12:07:39.525Z,3.58
2018-05-11T12:10:07.291Z,3.37
2018-05-11T12:12:34.864Z,3.17
2018-05-11T12:15:02.318Z,3.87
2018-05-11T12:17:29.361Z,3.90
2018-05-11T12:19:56.409Z,3.50
2018-05-11T12:22:23.462Z,3.78
2018-05-11T12:24:50.406Z,3.70
2018-05-11T12:27:17.563Z,4.53
2018-05-11T12:29:44.608Z,4.18
2018-05-11T12:32:11.653Z,3.30
2018-05-11T12:34:38.911Z,3.30
2018-05-11T12:37:05.952Z,3.20
2018-05-11T12:39:33.000Z,3.40
2018-05-11T12:42:00.154Z,3.72
2018-05-11T12:44:27.405Z,3.50
2018-05-11T12:46:54.762Z,3.75
2018-05-11T12:49:21.815Z,3.95
2018-05-11T12:51:48.858Z,4.62
2018-05-11T12:54:15.907Z,4.20
2018-05-11T12:56:43.056Z,4.18
2018-05-11T12:59:10.112Z,4.05
2018-05-11T13:01:37.052Z,3.65
2018-05-11T13:04:04.106Z,5.18
2018-05-11T13:06:31.457Z,4.90
2018-05-11T13:08:58.506Z,5.20
2018-05-11T13:11:25.656Z,5.07
2018-05-11T13:13:52.647Z,6.10
2018-05-11T13:16:19.753Z,4.22
2018-05-11T13:18:47.110Z,4.82
2018-05-11T13:21:14.777Z,4.82
2018-05-11T13:23:41.821Z,4.40
2018-05-11T13:26:10.201Z,4.43
2018-05-11T13:28:37.152Z,4.62
2018-05-11T13:31:04.195Z,4.97
2018-05-11T13:33:31.243Z,4.53
2018-05-11T13:35:58.299Z,4.60
2018-05-11T13:38:25.340Z,4.53
2018-05-11T13:40:52.390Z,4.22
2018-05-11T13:43:20.565Z,4.10
2018-05-11T13:45:47.614Z,4.12
2018-05-11T13:48:14.757Z,4.00
2018-05-11T13:50:41.711Z,4.25
2018-05-11T13:53:08.760Z,4.00
2018-05-11T13:55:35.813Z,3.75
2018-05-11T13:58:02.857Z,4.12
2018-05-11T14:00:29.851Z,3.75
2018-05-11T14:02:56.849Z,3.80
2018-05-11T14:05:23.803Z,3.53
2018-05-11T14:07:50.846Z,4.30
2018-05-11T14:10:17.935Z,4.03
2018-05-11T14:12:44.950Z,4.72
2018-05-11T14:15:11.996Z,3.92
2018-05-11T14:17:39.040Z,3.70
2018-05-11T14:20:06.095Z,3.95
2018-05-11T14:22:33.245Z,3.97
2018-05-11T14:25:00.312Z,3.90
2018-05-11T14:27:27.340Z,3.60
2018-05-11T14:29:54.488Z,3.85
2018-05-11T14:32:21.543Z,3.78
2018-05-11T14:34:48.695Z,3.47
2018-05-11T14:37:15.736Z,4.40
2018-05-11T14:39:42.786Z,3.83
2018-05-11T14:42:09.850Z,3.85
2018-05-11T14:44:36.884Z,4.30
2018-05-11T14:47:03.931Z,3.72
2018-05-11T14:49:30.988Z,3.75
2018-05-11T14:51:58.027Z,3.40
2018-05-11T14:54:25.077Z,3.50
2018-05-11T14:56:52.130Z,3.78
2018-05-11T14:59:19.686Z,3.70
2018-05-11T15:01:46.745Z,3.87
2018-05-11T15:04:17.339Z,4.00
2018-05-11T15:06:45.080Z,4.07
2018-05-11T15:09:12.078Z,3.55
2018-05-11T15:11:39.127Z,4.10
2018-05-11T15:14:06.838Z,3.70
2018-05-11T15:16:33.947Z,3.58
2018-05-11T15:19:01.099Z,3.87
2018-05-11T15:21:28.144Z,3.90
2018-05-11T15:23:58.198Z,3.90
2018-05-11T15:26:26.439Z,4.30
2018-05-11T15:28:57.691Z,4.30
2018-05-11T15:31:24.732Z,4.43
2018-05-11T15:33:51.780Z,4.22
2018-05-11T15:36:18.837Z,4.00
2018-05-11T15:38:46.299Z,4.10
2018-05-11T15:41:14.719Z,4.18
2018-05-11T15:43:41.716Z,3.95
2018-05-11T15:46:23.051Z,5.22
2018-05-11T15:48:51.019Z,4.03
2018-05-11T15:51:18.021Z,4.03
2018-05-11T15:53:45.065Z,4.50
2018-05-11T15:56:12.323Z,4.28
2018-05-11T15:58:41.111Z,4.20
2018-05-11T16:01:09.590Z,3.80
2018-05-11T16:03:37.772Z,4.57
2018-05-11T16:06:04.813Z,4.28
2018-05-11T16:08:31.861Z,4.22
2018-05-11T16:11:00.038Z,4.45
2018-05-11T16:13:27.231Z,4.57
2018-05-11T16:15:54.447Z,4.45
2018-05-11T16:18:23.538Z,4.35
2018-05-11T16:20:53.095Z,4.70
2018-05-11T16:23:20.708Z,4.53
2018-05-11T16:25:48.678Z,4.28
2018-05-11T16:28:16.177Z,4.20
2018-05-11T16:30:44.359Z,4.37
2018-05-11T16:33:11.360Z,4.22
2018-05-11T16:35:39.175Z,4.47
2018-05-11T16:38:07.300Z,4.30
2018-05-11T16:40:35.194Z,4.03
2018-05-11T16:43:03.552Z,4.25
2018-05-11T16:45:31.416Z,4.97
2018-05-11T16:47:58.777Z,4.32
2018-05-11T16:50:25.929Z,4.43
2018-05-11T16:52:53.483Z,4.32
2018-05-11T16:55:20.536Z,4.25
2018-05-11T16:57:47.580Z,4.30
2018-05-11T17:00:16.169Z,4.40
2018-05-11T17:02:43.424Z,4.68
2018-05-11T17:05:11.556Z,4.18
2018-05-11T17:07:38.539Z,4.62
2018-05-11T17:10:05.595Z,4.53
2018-05-11T17:12:32.650Z,4.35
2018-05-11T17:15:02.142Z,4.53
2018-05-11T17:17:29.239Z,4.62
2018-05-11T17:19:57.059Z,4.50
2018-05-11T17:22:24.420Z,4.50
2018-05-11T17:24:53.048Z,4.45
2018-05-11T17:27:20.047Z,5.50
2018-05-11T17:29:47.102Z,4.53
2018-05-11T17:32:15.271Z,4.82
2018-05-11T17:34:42.325Z,4.60
2018-05-11T17:37:09.396Z,4.62
2018-05-11T17:39:36.723Z,4.50
2018-05-11T17:42:03.778Z,4.90
2018-05-11T17:44:30.824Z,4.93
2018-05-11T17:46:57.975Z,5.60
2018-05-11T17:49:25.021Z,5.25
2018-05-11T17:51:52.075Z,5.10
2018-05-11T17:54:19.227Z,5.32
2018-05-11T17:56:46.476Z,5.18
2018-05-11T17:59:13.467Z,5.60
2018-05-11T18:10:45.247Z,5.45
2018-05-11T18:15:57.784Z,5.43
2018-05-11T18:18:42.815Z,5.15
2018-05-11T18:21:13.381Z,5.43
2018-05-11T18:23:40.326Z,5.70
2018-05-11T18:26:07.478Z,6.00
2018-05-11T18:28:35.963Z,6.12
2018-05-11T18:31:03.092Z,6.00
2018-05-11T18:33:31.437Z,5.90
2018-05-11T18:35:58.484Z,6.20
2018-05-11T18:38:25.530Z,9.10
2018-05-11T18:40:52.585Z,9.40
2018-05-11T18:43:19.578Z,10.18
2018-05-11T18:45:47.597Z,10.65
2018-05-11T18:48:15.055Z,13.32
2018-05-11T18:50:42.114Z,12.95
2018-05-11T18:53:09.223Z,11.88
2018-05-11T18:55:37.026Z,10.38
2018-05-11T18:58:04.176Z,9.98
2018-05-11T19:00:31.219Z,9.40
2018-05-11T19:02:58.268Z,9.50
2018-05-11T19:05:25.321Z,9.82
2018-05-11T19:07:52.364Z,12.57
2018-05-11T19:10:19.412Z,12.10
2018-05-11T19:12:46.467Z,10.70
2018-05-11T19:15:13.514Z,12.90
2018-05-11T19:17:40.559Z,14.23
2018-05-11T19:20:08.426Z,14.95
2018-05-11T19:22:35.346Z,15.65
2018-05-11T19:25:02.422Z,14.48
2018-05-11T19:27:29.573Z,13.62
2018-05-11T19:29:56.725Z,14.55
2018-05-11T19:32:23.772Z,13.77
2018-05-11T19:34:50.693Z,13.00
2018-05-11T19:37:17.670Z,13.27
2018-05-11T19:39:45.792Z,11.63
2018-05-11T19:42:12.808Z,9.98
2018-05-11T19:44:39.835Z,10.07
2018-05-11T19:47:06.828Z,9.60
2018-05-11T19:49:33.830Z,10.02
2018-05-11T19:52:03.816Z,9.98
2018-05-11T19:54:31.820Z,10.07
2018-05-11T19:56:58.872Z,8.70
2018-05-11T19:59:25.915Z,9.32
2018-05-11T20:01:52.964Z,9.38
2018-05-11T20:04:20.218Z,9.60
2018-05-11T20:06:47.218Z,8.80
2018-05-11T20:09:14.213Z,8.30
2018-05-11T20:11:41.224Z,8.43
2018-05-11T20:14:08.207Z,8.35
2018-05-11T20:16:35.358Z,8.75
2018-05-11T20:19:02.817Z,9.15
2018-05-11T20:21:29.865Z,9.10
2018-05-11T20:23:57.840Z,9.57
2018-05-11T20:26:24.992Z,9.23
2018-05-11T20:28:52.758Z,8.18
2018-05-11T20:31:19.799Z,8.75
2018-05-11T20:33:46.850Z,8.93
2018-05-11T20:36:13.902Z,8.87
2018-05-11T20:38:41.053Z,8.63
2018-05-11T20:41:08.209Z,8.60
2018-05-11T20:43:35.199Z,8.47
2018-05-11T20:46:02.252Z,8.80
2018-05-11T20:48:29.352Z,9.25
2018-05-11T20:50:56.394Z,9.27
2018-05-11T20:53:23.344Z,9.23
2018-05-11T20:55:50.341Z,9.43
2018-05-11T20:58:17.889Z,9.53
2018-05-11T21:00:44.895Z,9.70
2018-05-11T21:03:12.047Z,8.17
2018-05-11T21:05:39.408Z,8.47
2018-05-11T21:08:06.451Z,8.30
2018-05-11T21:10:33.499Z,8.60
2018-05-11T21:13:01.475Z,7.83
2018-05-11T21:15:28.933Z,8.13
2018-05-11T21:17:58.124Z,8.83
2018-05-11T21:20:25.279Z,7.73
2018-05-11T21:22:53.249Z,7.70
2018-05-11T21:25:20.198Z,7.53
2018-05-11T21:27:47.247Z,7.77
2018-05-11T21:30:14.299Z,7.73
2018-05-11T21:32:41.301Z,7.83
2018-05-11T21:35:08.294Z,7.40
2018-05-11T21:37:35.339Z,7.40
2018-05-11T21:40:08.530Z,6.87
2018-05-11T21:42:35.585Z,6.63
2018-05-11T21:45:02.629Z,6.93
2018-05-11T21:47:29.674Z,7.63
2018-05-11T21:49:56.727Z,7.10
2018-05-11T21:52:23.770Z,6.67
2018-05-11T21:54:50.722Z,7.23
2018-05-11T21:57:18.310Z,6.70
2018-05-11T21:59:45.333Z,7.20
2018-05-11T22:02:12.375Z,7.60
2018-05-11T22:04:39.427Z,7.20
2018-05-11T22:07:07.601Z,6.80
2018-05-11T22:09:34.651Z,6.57
2018-05-11T22:12:02.721Z,6.67
2018-05-11T22:14:29.778Z,6.73
2018-05-11T22:16:56.816Z,6.57
2018-05-11T22:19:23.865Z,6.17
2018-05-11T22:21:51.325Z,7.03
2018-05-11T22:24:18.377Z,6.97
2018-05-11T22:26:45.421Z,6.30
2018-05-11T22:29:12.469Z,6.37
2018-05-11T22:31:39.527Z,6.83
2018-05-11T22:34:06.566Z,6.73
2018-05-11T22:36:33.615Z,6.77
2018-05-11T22:39:00.915Z,6.87
2018-05-11T22:41:27.918Z,6.70
2018-05-11T22:43:55.894Z,6.53
2018-05-11T22:46:22.936Z,6.17
2018-05-11T22:48:50.017Z,5.80
2018-05-11T22:51:17.544Z,6.63
2018-05-11T22:53:44.595Z,7.10
2018-05-11T22:56:11.648Z,6.47
2018-05-11T23:01:24.170Z,6.80
2018-05-11T23:03:51.225Z,6.67
2018-05-11T23:06:18.268Z,6.10
2018-05-11T23:08:45.321Z,6.03
2018-05-11T23:11:12.372Z,6.10
2018-05-11T23:13:39.413Z,6.40
2018-05-11T23:16:06.468Z,6.37
2018-05-11T23:18:33.516Z,6.40
2018-05-11T23:21:00.561Z,5.87
2018-05-11T23:23:27.609Z,6.37
2018-05-11T23:25:54.663Z,6.07
2018-05-11T23:28:21.707Z,6.07
2018-05-11T23:30:48.705Z,6.23
2018-05-11T23:33:15.701Z,6.40
2018-05-11T23:35:42.750Z,6.37
2018-05-11T23:38:09.802Z,5.87
2018-05-11T23:40:36.846Z,6.57
2018-05-11T23:43:03.896Z,6.70
2018-05-11T23:45:30.949Z,6.30
2018-05-11T23:47:57.995Z,6.43
2018-05-11T23:50:24.992Z,6.27
2018-05-11T23:52:51.991Z,6.20
2018-05-11T23:55:19.034Z,6.73
2018-05-11T23:57:45.981Z,5.97
